Time;durP1;ratioP1;P1;durP2;ratioP2;P2;SDS_P1;SDS_P2;PMS_P1;PMS_P2;Temp;Humidity;BMP_temperature;BMP_pressure;BME280_temperature;BME280_humidity;BME280_pressure;Samples;Min_cycle;Max_cycle;Signal;HPM_P1;HPM_P2
2022/09/27 00:00:30;;;;;;;17.55;11.82;;;;;;;15.15;100.00;96052.28;5044710;28;20137;-62
2022/09/27 00:02:58;;;;;;;15.85;12.10;;;;;;;15.69;100.00;96120.75;5045187;28;20122;-63
2022/09/27 00:05:24;;;;;;;16.90;11.48;;;;;;;15.53;100.00;96117.03;5043155;28;20443;-62
2022/09/27 00:07:51;;;;;;;13.68;11.73;;;;;;;15.57;100.00;96129.72;5043304;28;20139;-62
2022/09/27 00:10:18;;;;;;;13.30;10.30;;;;;;;15.63;100.00;96128.03;5044454;28;20088;-62
2022/09/27 00:12:45;;;;;;;15.77;10.82;;;;;;;15.66;100.00;96118.81;5044678;28;20053;-62
2022/09/27 00:15:11;;;;;;;15.13;11.98;;;;;;;15.62;100.00;96125.63;5044641;28;20144;-63
2022/09/27 00:17:38;;;;;;;16.63;10.30;;;;;;;15.51;100.00;96125.84;5045135;28;20060;-62
2022/09/27 00:20:06;;;;;;;13.85;10.60;;;;;;;15.40;100.00;96125.22;5044589;28;20136;-64
2022/09/27 00:22:33;;;;;;;12.80;10.65;;;;;;;14.80;100.00;96055.63;5044641;28;20368;-64
2022/09/27 00:25:04;;;;;;;15.27;11.85;;;;;;;15.28;100.00;96123.00;5044613;28;20168;-61
2022/09/27 00:27:31;;;;;;;14.68;12.40;;;;;;;15.38;100.00;96118.47;5044429;28;20076;-62
2022/09/27 00:29:57;;;;;;;12.15;10.85;;;;;;;14.68;100.00;96006.06;5044706;28;20124;-62
2022/09/27 00:32:24;;;;;;;15.65;12.45;;;;;;;15.35;100.00;96106.13;5044374;28;20048;-63
2022/09/27 00:34:50;;;;;;;12.82;10.93;;;;;;;15.30;100.00;96114.22;5044679;28;20057;-61
2022/09/27 00:37:17;;;;;;;14.30;12.43;;;;;;;15.33;100.00;96114.16;5044291;28;20175;-63
2022/09/27 00:39:44;;;;;;;15.15;12.57;;;;;;;15.38;100.00;96113.69;5044331;28;20044;-62
2022/09/27 00:42:11;;;;;;;17.05;12.30;;;;;;;15.47;100.00;96113.16;5042553;28;20503;-63
2022/09/27 00:44:38;;;;;;;16.20;12.02;;;;;;;15.41;100.00;96112.06;5044155;28;20500;-62
2022/09/27 00:47:08;;;;;;;13.73;11.18;;;;;;;15.13;100.00;96102.13;5043842;28;20084;-64
2022/09/27 00:49:41;;;;;;;16.83;12.38;;;;;;;15.44;100.00;96106.44;5042524;28;20512;-63
2022/09/27 00:52:13;;;;;;;15.17;13.33;;;;;;;15.24;100.00;96063.69;5044226;28;20136;-61
2022/09/27 00:54:43;;;;;;;18.65;12.95;;;;;;;15.46;100.00;96094.84;5044296;28;20076;-61
2022/09/27 00:57:10;;;;;;;15.10;12.43;;;;;;;14.91;100.00;96020.00;5042461;28;20090;-62
2022/09/27 00:59:46;;;;;;;16.10;13.52;;;;;;;14.92;100.00;96021.59;5044424;28;20867;-62
2022/09/27 01:02:13;;;;;;;14.93;12.75;;;;;;;15.30;100.00;96087.09;5042582;28;20061;-62
2022/09/27 01:04:42;;;;;;;17.13;13.02;;;;;;;15.47;100.00;96094.41;5043842;28;20110;-61
2022/09/27 01:07:09;;;;;;;14.32;12.77;;;;;;;14.98;100.00;96025.47;5045646;28;20140;-62
2022/09/27 01:09:36;;;;;;;15.43;12.57;;;;;;;15.47;100.00;96088.03;5048082;28;20084;-62
2022/09/27 01:12:21;;;;;;;14.70;12.98;;;;;;;15.57;100.00;96090.63;5047777;28;20154;-62
2022/09/27 01:15:07;;;;;;;13.68;12.07;;;;;;;15.53;100.00;96101.09;5046552;28;20118;-63
2022/09/27 01:17:48;;;;;;;17.70;13.23;;;;;;;15.50;100.00;96096.34;5046082;28;20136;-62
2022/09/27 01:20:42;;;;;;;14.18;12.05;;;;;;;15.51;100.00;96081.19;5047780;28;20084;-62
2022/09/27 01:23:25;;;;;;;14.60;12.38;;;;;;;15.51;100.00;96080.38;5047892;28;20157;-62
2022/09/27 01:26:07;;;;;;;20.35;14.32;;;;;;;15.38;100.00;96077.41;5047811;28;20057;-61
2022/09/27 01:28:56;;;;;;;23.80;16.75;;;;;;;15.34;100.00;96079.47;5047853;28;20071;-61
2022/09/27 01:31:46;;;;;;;20.35;15.93;;;;;;;15.37;100.00;96075.81;5047590;28;20167;-62
2022/09/27 01:34:25;;;;;;;18.08;13.10;;;;;;;13.26;100.00;95738.53;5047706;28;20076;-64
2022/09/27 01:37:15;;;;;;;18.00;13.48;;;;;;;15.41;100.00;96073.81;5048062;28;20092;-61
2022/09/27 01:39:47;;;;;;;16.25;13.65;;;;;;;15.41;100.00;96076.59;5047279;28;20095;-62
2022/09/27 01:42:30;;;;;;;17.58;14.77;;;;;;;15.37;100.00;96075.81;5047520;28;20060;-64
2022/09/27 01:45:05;;;;;;;17.45;13.75;;;;;;;15.39;100.00;96062.25;5047822;28;20516;-61
2022/09/27 01:47:56;;;;;;;17.77;13.48;;;;;;;15.41;100.00;96059.84;5047232;28;20134;-65
2022/09/27 01:50:36;;;;;;;19.00;15.07;;;;;;;14.99;100.00;96049.34;5047277;28;20077;-64
2022/09/27 01:53:08;;;;;;;18.25;14.00;;;;;;;15.07;100.00;96057.19;5045932;28;20045;-64
2022/09/27 01:55:37;;;;;;;21.83;16.60;;;;;;;15.24;100.00;96058.09;5046947;28;20131;-62
2022/09/27 01:58:20;;;;;;;19.15;15.02;;;;;;;14.85;100.00;95993.81;5046034;28;20045;-62
2022/09/27 02:00:49;;;;;;;15.20;13.35;;;;;;;15.35;100.00;96055.13;5046084;28;20122;-61
2022/09/27 02:03:23;;;;;;;18.67;14.10;;;;;;;15.34;100.00;96065.50;5047479;28;20222;-61
2022/09/27 02:05:52;;;;;;;;;;;;;;;15.38;100.00;96057.88;5047424;28;20088;-61
2022/09/27 02:08:27;;;;;;;18.33;13.27;;;;;;;15.34;100.00;96048.75;5046909;28;19974;-62
2022/09/27 02:10:56;;;;;;;16.80;14.20;;;;;;;15.36;100.00;96049.13;5046698;28;20137;-61
2022/09/27 02:13:33;;;;;;;17.08;14.32;;;;;;;15.10;100.00;95999.75;5047078;28;20149;-61
2022/09/27 02:16:32;;;;;;;17.30;15.05;;;;;;;15.31;100.00;96035.66;5046254;28;20085;-63
2022/09/27 02:19:14;;;;;;;17.90;13.65;;;;;;;15.41;100.00;96048.69;5044063;28;20626;-60
2022/09/27 02:22:10;;;;;;;15.77;14.07;;;;;;;15.29;100.00;96045.66;5046592;28;20166;-61
2022/09/27 02:24:47;;;;;;;18.05;14.57;;;;;;;15.10;100.00;95999.75;5045462;28;20057;-62
2022/09/27 02:27:21;;;;;;;22.08;16.60;;;;;;;15.43;100.00;96040.66;5046932;28;20056;-61
2022/09/27 02:30:02;;;;;;;18.92;16.00;;;;;;;15.45;100.00;96029.84;5045134;28;20140;-64
2022/09/27 02:32:29;;;;;;;22.13;16.52;;;;;;;15.47;100.00;96035.81;5046458;28;20140;-62
2022/09/27 02:35:00;;;;;;;20.15;16.73;;;;;;;15.54;100.00;96013.34;5044993;28;20466;-64
2022/09/27 02:37:27;;;;;;;20.15;15.45;;;;;;;15.49;100.00;96027.78;5046600;28;20507;-61
2022/09/27 02:39:53;;;;;;;21.30;16.08;;;;;;;15.37;100.00;96022.78;5045816;28;20084;-64
2022/09/27 02:42:20;;;;;;;20.35;17.15;;;;;;;15.46;100.00;96037.00;5044738;28;20158;-61
2022/09/27 02:44:47;;;;;;;23.38;19.17;;;;;;;15.43;100.00;96018.31;5044737;28;20132;-60
2022/09/27 02:47:23;;;;;;;21.92;15.68;;;;;;;15.48;100.00;96037.38;5046386;28;20143;-62
2022/09/27 02:50:02;;;;;;;15.90;14.20;;;;;;;15.40;100.00;96041.50;5046140;28;20353;-61
2022/09/27 02:52:46;;;;;;;16.88;15.00;;;;;;;15.39;100.00;96044.72;5046360;28;20084;-62
2022/09/27 02:55:21;;;;;;;16.63;14.57;;;;;;;15.38;100.00;96041.13;5045864;28;20132;-61
2022/09/27 02:58:06;;;;;;;16.58;14.25;;;;;;;15.35;100.00;96039.16;5046235;28;20092;-63
2022/09/27 03:00:48;;;;;;;17.25;14.50;;;;;;;15.39;100.00;96033.56;5045913;28;20088;-62
2022/09/27 03:03:32;;;;;;;17.33;14.25;;;;;;;15.40;100.00;96019.19;5046173;28;20096;-62
2022/09/27 03:06:06;;;;;;;16.85;14.35;;;;;;;15.43;100.00;96040.66;5045860;28;20088;-61
2022/09/27 03:08:33;;;;;;;16.70;13.98;;;;;;;14.93;100.00;95950.66;5046394;28;20470;-60
2022/09/27 03:11:00;;;;;;;16.05;14.35;;;;;;;15.40;100.00;96024.75;5044543;28;20055;-61
2022/09/27 03:13:27;;;;;;;17.10;14.20;;;;;;;15.26;100.00;95985.13;5046471;28;20738;-61
2022/09/27 03:15:53;;;;;;;17.05;13.90;;;;;;;15.45;100.00;96010.31;5045414;28;20575;-60
2022/09/27 03:18:28;;;;;;;16.67;12.02;;;;;;;15.44;100.00;96005.97;5046203;28;20514;-61
2022/09/27 03:20:54;;;;;;;17.20;14.40;;;;;;;15.47;100.00;96002.31;5045591;28;20167;-63
2022/09/27 03:23:21;;;;;;;16.60;14.32;;;;;;;15.30;100.00;95975.47;5044263;28;20053;-61
2022/09/27 03:25:48;;;;;;;16.13;14.43;;;;;;;15.47;100.00;96007.09;5045119;28;20053;-61
2022/09/27 03:28:15;;;;;;;17.48;13.07;;;;;;;15.40;100.00;95984.91;5043913;28;20077;-61
2022/09/27 03:30:44;;;;;;;17.35;14.13;;;;;;;15.48;100.00;96020.63;5045270;28;20152;-61
2022/09/27 03:33:11;;;;;;;18.08;14.60;;;;;;;15.53;100.00;96017.34;5044291;28;20059;-63
2022/09/27 03:35:40;;;;;;;16.08;14.23;;;;;;;15.49;100.00;96011.03;5043919;28;20498;-61
2022/09/27 03:38:08;;;;;;;17.08;14.38;;;;;;;15.49;100.00;95999.88;5043993;28;20136;-64
2022/09/27 04:01:12;;;;;;;23.50;17.30;;;;;;;16.08;100.00;95969.94;5100362;27;20386;-61
2022/09/27 04:03:39;;;;;;;18.17;15.75;;;;;;;15.97;100.00;95969.38;5100287;28;20095;-62
2022/09/27 04:06:06;;;;;;;17.15;14.05;;;;;;;15.84;100.00;95973.28;5098564;28;20480;-60
2022/09/27 04:08:33;;;;;;;18.10;14.40;;;;;;;15.74;100.00;95980.66;5100037;28;20139;-61
2022/09/27 04:10:59;;;;;;;18.58;14.77;;;;;;;15.78;100.00;95989.72;5099686;28;20593;-62
2022/09/27 04:13:26;;;;;;;21.20;15.90;;;;;;;14.89;100.00;95844.00;5100374;28;20800;-61
2022/09/27 04:15:53;;;;;;;20.77;15.50;;;;;;;15.69;100.00;95981.16;5100214;28;20071;-60
2022/09/27 04:18:20;;;;;;;16.02;13.75;;;;;;;15.72;100.00;95977.50;5099898;28;20140;-62
2022/09/27 04:20:46;;;;;;;14.88;13.38;;;;;;;15.72;100.00;95977.50;5097774;28;20167;-60
2022/09/27 04:23:13;;;;;;;17.33;13.82;;;;;;;15.58;100.00;95941.50;5101175;28;20051;-61
2022/09/27 04:25:40;;;;;;;18.02;14.98;;;;;;;15.75;100.00;95965.47;5101631;28;20052;-61
2022/09/27 04:28:06;;;;;;;17.02;15.23;;;;;;;15.74;100.00;95972.28;5101556;28;20499;-61
2022/09/27 04:30:33;;;;;;;20.35;15.82;;;;;;;15.49;100.00;95932.88;5101509;28;20090;-62
2022/09/27 04:33:00;;;;;;;26.10;16.60;;;;;;;15.84;100.00;95965.66;5101543;28;20047;-62
2022/09/27 04:38:22;;;;;;;19.92;15.40;;;;;;;15.76;100.00;95919.56;5101907;28;20075;-62
2022/09/27 04:40:51;;;;;;;18.95;15.35;;;;;;;15.88;100.00;95948.84;5100501;28;20541;-60
2022/09/27 04:43:18;;;;;;;18.52;14.55;;;;;;;15.20;100.00;95839.78;5101158;28;20043;-61
2022/09/27 04:45:44;;;;;;;20.38;14.10;;;;;;;15.65;100.00;95946.91;5101198;28;20047;-62
2022/09/27 04:48:11;;;;;;;17.67;14.10;;;;;;;15.36;100.00;95906.81;5101276;28;20139;-61
2022/09/27 04:50:39;;;;;;;16.52;12.90;;;;;;;15.84;100.00;95953.72;5099356;28;20139;-61
2022/09/27 04:53:06;;;;;;;14.32;12.82;;;;;;;15.89;100.00;95950.41;5100173;28;20188;-61
2022/09/27 04:55:33;;;;;;;14.90;12.38;;;;;;;15.44;100.00;95885.97;5100800;28;20109;-60
2022/09/27 04:58:00;;;;;;;13.68;11.10;;;;;;;15.78;100.00;95933.88;5100863;28;20083;-62
2022/09/27 05:00:27;;;;;;;14.80;12.45;;;;;;;15.66;100.00;95915.00;5093198;28;20074;-61
2022/09/27 05:02:54;;;;;;;14.50;11.75;;;;;;;16.08;100.00;95958.78;5087559;28;20575;-61
2022/09/27 05:05:21;;;;;;;12.85;10.82;;;;;;;16.22;100.00;95964.03;5085462;28;20514;-61
2022/09/27 05:07:48;;;;;;;12.82;10.98;;;;;;;16.34;100.00;95960.56;5087534;28;20438;-63
2022/09/27 05:10:14;;;;;;;14.10;11.27;;;;;;;16.21;100.00;95922.56;5085635;28;20064;-61
2022/09/27 05:12:41;;;;;;;14.93;11.13;;;;;;;16.52;100.00;95955.41;5087229;28;20136;-61
2022/09/27 05:15:08;;;;;;;17.15;13.02;;;;;;;16.41;100.00;95938.06;5084648;28;20164;-61
2022/09/27 05:17:35;;;;;;;16.75;13.30;;;;;;;15.92;100.00;95894.47;5087134;28;20490;-60
2022/09/27 05:20:03;;;;;;;16.08;11.82;;;;;;;16.10;100.00;95917.22;5085575;28;20147;-63
2022/09/27 05:22:30;;;;;;;15.48;12.52;;;;;;;16.30;100.00;95937.50;5087229;28;20071;-61
2022/09/27 05:24:56;;;;;;;13.70;12.00;;;;;;;16.19;100.00;95942.56;5087291;28;20044;-61
2022/09/27 05:27:23;;;;;;;14.48;12.98;;;;;;;15.94;100.00;95903.22;5085588;28;20674;-60
2022/09/27 05:29:50;;;;;;;15.93;13.07;;;;;;;16.24;100.00;95939.25;5087289;28;20108;-62
2022/09/27 05:32:17;;;;;;;20.65;13.70;;;;;;;16.46;100.00;95945.97;5086878;28;20117;-61
2022/09/27 05:34:43;;;;;;;16.83;13.45;;;;;;;16.63;100.00;95943.19;5086379;28;20106;-64
2022/09/27 05:37:10;;;;;;;17.67;13.32;;;;;;;16.74;100.00;95938.13;5084976;28;20493;-61
2022/09/27 05:39:37;;;;;;;18.58;12.60;;;;;;;16.81;100.00;95949.91;5086560;28;20084;-62
2022/09/27 05:42:06;;;;;;;19.90;13.63;;;;;;;16.63;100.00;95916.78;5085183;28;20139;-62
2022/09/27 05:44:34;;;;;;;14.73;12.15;;;;;;;16.97;100.00;95946.31;5085351;28;20090;-59
2022/09/27 05:47:04;;;;;;;14.05;12.60;;;;;;;17.09;100.00;95934.41;5086243;28;20052;-60
2022/09/27 05:49:32;;;;;;;14.82;13.23;;;;;;;17.12;100.00;95914.72;5084593;28;20071;-62
2022/09/27 05:51:59;;;;;;;14.98;13.48;;;;;;;17.19;100.00;95922.16;5085673;28;20528;-64
2022/09/27 05:54:28;;;;;;;14.70;13.23;;;;;;;17.17;100.00;95905.00;5084933;28;20052;-61
2022/09/27 05:56:59;;;;;;;14.48;12.50;;;;;;;17.47;100.00;95947.38;5086474;28;20052;-58
2022/09/27 05:59:26;;;;;;;16.23;13.15;;;;;;;17.06;100.00;95896.91;5078558;28;20576;-64
2022/09/27 06:01:53;;;;;;;14.85;12.88;;;;;;;17.37;100.00;95967.25;5082669;28;20152;-60
2022/09/27 06:04:20;;;;;;;17.25;13.25;;;;;;;17.50;100.00;95956.91;5084975;28;20145;-59
2022/09/27 06:06:47;;;;;;;17.70;14.48;;;;;;;17.61;100.00;95965.81;5085775;28;20113;-59
2022/09/27 06:09:16;;;;;;;17.45;15.65;;;;;;;17.69;100.00;95958.78;5085725;28;20147;-62
2022/09/27 06:11:44;;;;;;;17.77;15.88;;;;;;;17.83;100.00;95958.41;5084699;28;20055;-68
2022/09/27 06:14:14;;;;;;;21.05;18.08;;;;;;;17.56;100.00;95896.34;5084755;28;20051;-62
2022/09/27 06:16:41;;;;;;;23.73;17.35;;;;;;;18.02;100.00;95943.41;5084373;28;20056;-64
2022/09/27 06:19:07;;;;;;;19.13;15.88;;;;;;;18.09;100.00;95946.00;5085653;28;20146;-62
2022/09/27 06:21:34;;;;;;;20.35;15.23;;;;;;;18.21;100.00;95939.63;5086087;28;20059;-60
2022/09/27 06:24:01;;;;;;;15.70;13.98;;;;;;;18.26;100.00;95936.28;5083680;28;20084;-63
2022/09/27 06:26:28;;;;;;;14.68;11.65;;;;;;;18.43;97.49;95948.97;5077536;28;20128;-66
2022/09/27 06:28:55;;;;;;;17.20;13.60;;;;;;;18.05;97.43;95881.66;5087099;28;20101;-64
2022/09/27 06:31:22;;;;;;;16.15;14.43;;;;;;;17.42;97.88;95818.34;5084582;28;20074;-66
2022/09/27 06:33:49;;;;;;;17.70;15.18;;;;;;;18.16;98.72;95902.97;5085163;28;20051;-63
2022/09/27 06:36:16;;;;;;;22.88;16.63;;;;;;;18.41;99.56;95926.22;5085211;28;20083;-68
2022/09/27 06:38:45;;;;;;;17.35;15.55;;;;;;;18.32;99.68;95889.63;5085498;28;20048;-63
2022/09/27 06:41:14;;;;;;;17.08;15.40;;;;;;;18.61;97.92;95900.75;5078518;28;20114;-69
2022/09/27 06:43:40;;;;;;;17.63;14.35;;;;;;;18.82;97.41;95914.88;5079034;28;20060;-57
2022/09/27 06:46:07;;;;;;;18.23;13.70;;;;;;;18.82;97.22;95914.88;5084529;28;20102;-62
2022/09/27 06:48:38;;;;;;;18.27;16.27;;;;;;;18.88;96.83;95937.53;5085016;28;20082;-59
2022/09/27 06:51:04;;;;;;;18.15;16.20;;;;;;;18.96;96.46;95933.25;5084636;28;20109;-64
2022/09/27 06:53:31;;;;;;;19.25;16.83;;;;;;;18.92;95.52;95947.38;5084575;28;20083;-61
2022/09/27 06:56:02;;;;;;;17.95;16.02;;;;;;;18.99;95.24;95955.59;5083371;28;20434;-65
2022/09/27 07:01:16;;;;;;;15.65;13.18;;;;;;;19.29;93.86;95952.19;5084277;28;20086;-63
2022/09/27 07:03:48;;;;;;;14.13;12.73;;;;;;;18.79;92.31;95864.47;5082328;28;20462;-65
2022/09/27 07:06:19;;;;;;;15.20;13.60;;;;;;;19.26;92.68;95946.66;5084182;28;20104;-64
2022/09/27 07:08:52;;;;;;;16.30;12.15;;;;;;;19.21;90.15;95913.53;5082942;28;20051;-63
2022/09/27 07:11:20;;;;;;;16.17;12.48;;;;;;;19.23;89.11;95931.50;5081987;28;20064;-63
2022/09/27 07:13:47;;;;;;;12.88;10.98;;;;;;;19.26;88.44;95902.53;5082764;28;20098;-64
2022/09/27 07:16:14;;;;;;;12.70;11.52;;;;;;;19.33;86.60;95919.13;5075887;28;20131;-59
2022/09/27 07:18:41;;;;;;;16.50;14.45;;;;;;;19.80;86.46;95951.97;5064206;28;20063;-60
2022/09/27 07:21:09;;;;;;;13.45;12.05;;;;;;;19.90;84.65;95951.59;5063856;28;20052;-61
2022/09/27 07:23:36;;;;;;;12.85;10.68;;;;;;;19.40;83.40;95851.50;5082175;28;20105;-64
2022/09/27 07:26:03;;;;;;;13.10;10.95;;;;;;;19.91;82.93;95946.75;5084026;28;20548;-61
2022/09/27 07:28:30;;;;;;;12.02;10.88;;;;;;;20.01;82.52;95959.66;5084312;28;20083;-61
2022/09/27 07:30:57;;;;;;;12.48;11.35;;;;;;;19.53;82.44;95899.19;5083497;28;20060;-61
2022/09/27 07:33:24;;;;;;;13.98;12.57;;;;;;;19.58;83.03;95928.72;5075058;28;20457;-62
2022/09/27 07:35:51;;;;;;;23.50;17.55;;;;;;;19.06;83.50;95837.44;5064583;28;20048;-73
2022/09/27 07:38:18;;;;;;;16.10;13.55;;;;;;;19.67;85.37;95937.19;5065601;28;20131;-63
2022/09/27 07:40:45;;;;;;;16.10;14.13;;;;;;;19.52;85.03;95957.38;5068681;28;20062;-60
2022/09/27 07:43:12;;;;;;;14.13;12.82;;;;;;;18.91;86.64;95881.28;5084200;28;20044;-64
2022/09/27 07:45:39;;;;;;;14.38;12.60;;;;;;;19.44;86.58;95964.47;5083194;28;20071;-70
2022/09/27 07:48:09;;;;;;;14.65;12.60;;;;;;;19.32;86.42;95911.97;5079778;28;20052;-66
2022/09/27 07:50:37;;;;;;;14.70;13.32;;;;;;;19.42;86.76;95955.75;5072972;28;20138;-66
2022/09/27 07:53:04;;;;;;;15.18;13.55;;;;;;;19.60;87.80;95945.91;5072682;28;20131;-67
2022/09/27 07:55:31;;;;;;;16.70;14.65;;;;;;;19.65;86.97;95939.69;5084154;28;20080;-63
2022/09/27 07:58:09;;;;;;;14.48;13.18;;;;;;;19.88;85.84;95944.88;5082593;28;20085;-61
2022/09/27 08:00:37;;;;;;;22.13;17.05;;;;;;;19.93;85.64;95939.44;5083412;28;20092;-64
2022/09/27 08:03:05;;;;;;;17.50;13.77;;;;;;;20.43;84.59;95941.97;5083886;28;20177;-59
2022/09/27 08:05:35;;;;;;;13.45;11.73;;;;;;;20.50;81.06;95921.22;5083282;28;20174;-62
2022/09/27 08:08:03;;;;;;;12.52;11.35;;;;;;;20.92;78.78;95942.00;5083590;28;20125;-62
2022/09/27 08:10:31;;;;;;;13.07;10.75;;;;;;;21.26;78.38;95936.16;5081624;28;20083;-66
2022/09/27 08:13:02;;;;;;;12.05;10.52;;;;;;;19.91;78.20;95674.13;5081708;28;20134;-65
2022/09/27 08:15:35;;;;;;;12.45;10.70;;;;;;;21.92;76.22;95935.28;5083495;28;20052;-60
2022/09/27 08:18:02;;;;;;;12.60;11.18;;;;;;;21.57;75.55;95846.66;5080181;28;20059;-63
2022/09/27 08:20:29;;;;;;;12.43;11.23;;;;;;;22.07;73.61;95936.22;5083429;28;20590;-64
2022/09/27 08:22:56;;;;;;;11.80;10.70;;;;;;;21.15;72.78;95752.00;5081766;28;20456;-64
2022/09/27 08:25:23;;;;;;;11.65;10.50;;;;;;;22.04;72.15;95886.38;5083269;28;20510;-63
2022/09/27 08:27:55;;;;;;;11.48;10.35;;;;;;;22.56;72.08;95941.59;5082673;28;20056;-66
2022/09/27 08:30:23;;;;;;;11.95;10.88;;;;;;;22.24;70.40;95886.63;5081985;28;20662;-64
2022/09/27 08:32:54;;;;;;;12.20;10.85;;;;;;;22.71;69.09;95938.88;5083593;28;20052;-64
2022/09/27 08:35:21;;;;;;;12.18;10.98;;;;;;;22.77;68.29;95934.16;5082553;28;20051;-63
2022/09/27 08:37:56;;;;;;;11.63;10.57;;;;;;;22.84;68.57;95919.69;5087781;28;20048;-64
2022/09/27 08:40:30;;;;;;;13.63;11.93;;;;;;;22.63;69.79;95926.38;5085817;28;20079;-65
2022/09/27 08:43:20;;;;;;;13.55;12.25;;;;;;;22.76;69.40;95919.28;5085263;28;20526;-64
2022/09/27 08:46:03;;;;;;;12.75;11.55;;;;;;;22.89;69.50;95905.69;5086812;28;20564;-63
2022/09/27 08:48:31;;;;;;;12.77;11.65;;;;;;;22.16;69.03;95777.44;5087296;28;20052;-61
2022/09/27 08:51:00;;;;;;;11.40;9.85;;;;;;;22.76;66.71;95867.66;5086745;28;20589;-64
2022/09/27 08:53:35;;;;;;;13.80;10.70;;;;;;;23.56;65.77;95914.41;5086632;28;20051;-66
2022/09/27 08:56:03;;;;;;;11.43;10.35;;;;;;;23.48;64.55;95912.41;5087350;28;20495;-64
2022/09/27 08:58:31;;;;;;;11.40;10.40;;;;;;;22.31;67.90;95903.25;5085589;28;20187;-65
2022/09/27 09:01:02;;;;;;;11.10;9.30;;;;;;;21.71;69.05;95887.50;5086628;28;20138;-64
2022/09/27 09:03:31;;;;;;;10.82;10.02;;;;;;;22.41;68.54;95893.47;5085700;28;20059;-66
2022/09/27 09:06:18;;;;;;;11.25;10.23;;;;;;;22.34;69.50;95809.16;5085283;28;20529;-66
2022/09/27 09:09:00;;;;;;;15.55;11.35;;;;;;;22.82;67.44;95865.72;5086988;28;20483;-65
2022/09/27 09:14:51;;;;;;;12.45;9.90;;;;;;;22.91;69.53;95868.50;5086507;28;20044;-64
2022/09/27 09:17:37;;;;;;;11.18;10.18;;;;;;;23.13;68.79;95852.81;5086661;28;20088;-65
2022/09/27 09:20:25;;;;;;;10.95;9.88;;;;;;;23.16;67.81;95856.72;5086807;28;20131;-66
2022/09/27 09:23:20;;;;;;;10.07;9.07;;;;;;;23.28;67.33;95852.91;5086739;28;20060;-64
2022/09/27 09:26:02;;;;;;;10.40;9.25;;;;;;;23.42;67.00;95857.81;5086531;28;20068;-65
2022/09/27 09:28:37;;;;;;;8.95;8.23;;;;;;;23.76;65.14;95854.38;5084870;28;20055;-65
2022/09/27 09:31:08;;;;;;;12.05;10.00;;;;;;;23.97;63.10;95853.25;5086375;28;20151;-65
2022/09/27 09:33:57;;;;;;;9.80;8.90;;;;;;;24.08;63.73;95842.13;5086625;28;20596;-65
2022/09/27 09:36:33;;;;;;;10.85;9.18;;;;;;;24.08;63.50;95796.06;5084962;28;20072;-65
2022/09/27 09:39:22;;;;;;;9.85;9.00;;;;;;;24.57;63.00;95838.56;5086402;28;20083;-65
2022/09/27 09:41:55;;;;;;;10.95;9.73;;;;;;;23.87;63.56;95843.25;5086012;28;20481;-64
2022/09/27 09:44:55;;;;;;;9.05;8.13;;;;;;;23.96;63.28;95846.00;5086655;28;20113;-63
2022/09/27 09:47:28;;;;;;;9.70;8.82;;;;;;;23.45;64.47;95828.59;5085645;28;20052;-62
2022/09/27 09:50:03;;;;;;;8.88;8.13;;;;;;;24.19;61.46;95780.06;5084271;28;20562;-63
2022/09/27 09:52:41;;;;;;;8.93;8.07;;;;;;;24.52;60.14;95783.41;5085047;28;20498;-60
2022/09/27 09:55:27;;;;;;;9.05;8.30;;;;;;;23.38;64.54;95742.13;5086452;28;20083;-58
2022/09/27 09:57:58;;;;;;;8.88;8.18;;;;;;;24.58;60.78;95812.59;5084746;28;20404;-65
2022/09/27 10:00:25;;;;;;;9.77;9.07;;;;;;;24.49;59.96;95807.03;5085825;28;20077;-64
2022/09/27 10:02:58;;;;;;;9.25;8.40;;;;;;;24.86;60.54;95788.31;5084065;28;20144;-64
2022/09/27 10:05:27;;;;;;;8.77;7.95;;;;;;;25.11;60.18;95776.28;5085823;28;20095;-62
2022/09/27 10:07:58;;;;;;;11.45;8.88;;;;;;;24.89;58.54;95772.38;5085224;28;20082;-59
2022/09/27 10:10:25;;;;;;;9.52;8.63;;;;;;;24.28;59.53;95784.84;5085402;28;20506;-61
2022/09/27 10:12:52;;;;;;;10.60;9.43;;;;;;;23.62;63.46;95790.88;5084921;28;20139;-60
2022/09/27 10:15:25;;;;;;;8.68;8.00;;;;;;;23.50;61.06;95712.00;5085401;28;20480;-62
2022/09/27 10:17:56;;;;;;;9.10;8.40;;;;;;;23.56;62.68;95795.66;5084576;28;20087;-62
2022/09/27 10:20:34;;;;;;;10.02;9.23;;;;;;;23.20;66.30;95789.50;4892232;27;5001783;-63
2022/09/27 10:23:14;;;;;;;11.23;10.07;;;;;;;23.12;67.38;95793.97;5101671;28;20495;-62
2022/09/27 10:25:56;;;;;;;9.43;8.63;;;;;;;23.03;66.66;95791.22;5094835;28;20087;-62
2022/09/27 10:28:44;;;;;;;9.20;8.50;;;;;;;23.24;67.15;95784.44;5085368;28;20051;-62
2022/09/27 10:31:14;;;;;;;9.65;8.82;;;;;;;23.54;65.62;95764.25;5083705;28;20083;-63
2022/09/27 10:33:58;;;;;;;10.00;8.73;;;;;;;23.78;65.29;95778.31;5084952;28;20131;-67
2022/09/27 10:36:28;;;;;;;9.43;8.63;;;;;;;24.08;63.17;95774.22;5069389;28;20052;-64
2022/09/27 10:38:59;;;;;;;9.82;9.02;;;;;;;22.37;65.13;95671.97;5081518;28;20610;-62
2022/09/27 10:41:38;;;;;;;9.32;8.52;;;;;;;23.43;64.34;95757.59;5082160;28;20050;-65
2022/09/27 10:44:14;;;;;;;9.20;8.38;;;;;;;23.51;64.71;95767.28;5083904;28;20076;-62
2022/09/27 10:46:48;;;;;;;9.02;8.35;;;;;;;23.21;64.70;95768.47;5084764;28;20056;-63
2022/09/27 10:49:31;;;;;;;;;;;;;;;23.53;65.02;95761.91;5070757;28;20121;-66
2022/09/27 10:52:07;;;;;;;9.63;8.85;;;;;;;23.83;63.50;95727.50;5073515;27;20006;-63
2022/09/27 10:54:38;;;;;;;9.27;8.48;;;;;;;24.39;62.16;95731.97;5084440;28;20163;-63
2022/09/27 10:57:17;;;;;;;9.45;8.55;;;;;;;24.73;60.25;95722.72;5081370;28;20136;-61
2022/09/27 10:59:53;;;;;;;8.35;7.75;;;;;;;24.24;59.86;95719.94;5082756;28;20732;-67
2022/09/27 11:02:30;;;;;;;9.52;8.60;;;;;;;23.92;62.97;95754.88;5081186;28;20044;-62
2022/09/27 11:05:30;;;;;;;9.45;8.57;;;;;;;23.81;61.17;95743.38;5083850;28;20082;-64
2022/09/27 11:08:27;;;;;;;9.55;8.77;;;;;;;24.14;59.55;95709.25;5084092;28;20105;-63
2022/09/27 11:11:12;;;;;;;9.63;8.70;;;;;;;24.33;60.36;95745.28;5082958;28;20136;-63
2022/09/27 11:13:40;;;;;;;9.27;8.38;;;;;;;24.80;57.05;95732.84;5080640;28;20048;-60
2022/09/27 11:16:35;;;;;;;8.75;7.90;;;;;;;25.11;57.34;95725.25;5083841;28;20106;-62
2022/09/27 11:19:46;;;;;;;8.20;7.50;;;;;;;25.46;55.99;95728.00;5083912;28;20052;-60
2022/09/27 11:22:27;;;;;;;8.35;7.75;;;;;;;24.61;56.47;95726.63;5020066;28;20175;-63
2022/09/27 11:25:07;;;;;;;8.88;8.27;;;;;;;24.16;57.64;95718.78;5062121;28;20109;-63
2022/09/27 11:27:33;;;;;;;9.38;8.50;;;;;;;24.22;57.49;95725.31;5068690;28;20113;-68
2022/09/27 11:30:19;;;;;;;13.93;11.38;;;;;;;24.46;55.76;95708.16;5082385;28;20048;-68
2022/09/27 11:32:51;;;;;;;8.93;8.13;;;;;;;24.87;54.51;95707.72;5084186;28;20514;-64
2022/09/27 11:35:27;;;;;;;8.75;7.95;;;;;;;24.51;54.71;95716.72;5083090;28;20128;-64
2022/09/27 11:38:15;;;;;;;9.55;7.80;;;;;;;24.98;53.50;95710.66;5083386;28;20055;-67
2022/09/27 11:41:21;;;;;;;8.38;7.63;;;;;;;25.71;52.45;95710.19;5075071;28;20048;-64
2022/09/27 11:44:10;;;;;;;7.63;7.03;;;;;;;26.13;50.31;95701.78;5083628;28;20361;-61
2022/09/27 11:46:40;;;;;;;7.68;7.10;;;;;;;26.32;49.47;95702.19;5076980;28;20051;-63
2022/09/27 11:49:14;;;;;;;6.93;6.53;;;;;;;26.50;49.36;95679.03;5073823;28;20056;-67
2022/09/27 11:51:43;;;;;;;7.47;6.97;;;;;;;26.70;50.32;95678.91;5082233;28;20048;-74
2022/09/27 11:54:47;;;;;;;8.32;7.78;;;;;;;26.85;48.82;95684.41;5082717;28;20760;-63
2022/09/27 11:57:25;;;;;;;10.32;9.52;;;;;;;26.81;50.45;95673.28;5084291;28;20473;-66
2022/09/27 12:00:11;;;;;;;8.60;7.88;;;;;;;27.09;49.95;95687.59;5081188;28;20088;-67
2022/09/27 12:02:44;;;;;;;8.10;7.47;;;;;;;27.31;48.77;95679.94;5080179;28;20083;-65
2022/09/27 12:05:46;;;;;;;8.45;7.85;;;;;;;27.11;48.99;95596.88;5080514;28;20051;-65
2022/09/27 12:08:45;;;;;;;8.00;7.20;;;;;;;27.75;47.39;95662.94;5079994;28;20063;-62
2022/09/27 12:11:29;;;;;;;9.25;8.40;;;;;;;26.89;48.03;95614.66;5082925;28;20105;-71